createdAt,value
2019-02-15T00:00:20.382Z,1.50
2019-02-15T00:01:20.371Z,1.70
2019-02-15T00:02:20.361Z,1.50
2019-02-15T00:03:20.371Z,1.40
2019-02-15T00:04:20.341Z,1.50
2019-02-15T00:05:20.333Z,1.70
2019-02-15T00:06:20.316Z,1.50
2019-02-15T00:07:20.305Z,1.50
2019-02-15T00:08:20.315Z,1.40
2019-02-15T00:09:20.284Z,1.60
2019-02-15T00:10:20.273Z,1.30
2019-02-15T00:11:20.272Z,1.70
2019-02-15T00:12:20.251Z,1.40
2019-02-15T00:13:20.262Z,1.50
2019-02-15T00:14:20.229Z,1.50
2019-02-15T00:15:20.217Z,1.50
2019-02-15T00:16:20.220Z,1.10
2019-02-15T00:17:20.213Z,1.20
2019-02-15T00:18:20.207Z,1.50
2019-02-15T00:19:20.180Z,1.00
2019-02-15T00:20:20.163Z,1.10
2019-02-15T00:21:20.156Z,1.30
2019-02-15T00:22:20.140Z,1.30
2019-02-15T00:23:20.177Z,1.20
2019-02-15T00:24:20.125Z,1.30
2019-02-15T00:25:20.112Z,1.40
2019-02-15T00:26:20.103Z,1.40
2019-02-15T00:27:20.088Z,1.10
2019-02-15T00:28:20.097Z,1.50
2019-02-15T00:29:20.110Z,1.10
2019-02-15T00:30:20.057Z,1.30
2019-02-15T00:31:20.046Z,1.20
2019-02-15T00:32:20.034Z,1.50
2019-02-15T00:33:20.048Z,1.50
2019-02-15T00:34:20.012Z,1.10
2019-02-15T00:35:20.011Z,1.40
2019-02-15T00:36:19.993Z,1.30
2019-02-15T00:37:19.980Z,1.30
2019-02-15T00:38:19.991Z,1.10
2019-02-15T00:39:19.958Z,1.10
2019-02-15T00:40:19.946Z,1.40
2019-02-15T00:41:19.944Z,1.30
2019-02-15T00:42:19.934Z,1.20
2019-02-15T00:43:22.308Z,1.40
2019-02-15T00:44:19.902Z,1.20
2019-02-15T00:45:19.892Z,1.40
2019-02-15T00:46:19.879Z,1.20
2019-02-15T00:47:19.884Z,1.20
2019-02-15T00:48:19.859Z,1.40
2019-02-15T00:49:19.869Z,1.20
2019-02-15T00:50:19.836Z,1.20
2019-02-15T00:51:19.829Z,1.40
2019-02-15T00:52:19.814Z,1.20
2019-02-15T00:53:19.808Z,1.60
2019-02-15T00:54:19.816Z,1.00
2019-02-15T00:55:19.781Z,1.10
2019-02-15T00:56:19.770Z,1.00
2019-02-15T00:57:19.760Z,1.20
2019-02-15T00:58:19.749Z,1.30
2019-02-15T00:59:19.773Z,1.30
2019-02-15T01:00:19.728Z,1.30
2019-02-15T01:01:19.715Z,1.20
2019-02-15T01:02:19.706Z,1.20
2019-02-15T01:03:19.694Z,1.00
2019-02-15T01:04:19.719Z,1.20
2019-02-15T01:05:19.674Z,1.10
2019-02-15T01:06:19.661Z,0.80
2019-02-15T01:07:19.652Z,1.00
2019-02-15T01:08:19.641Z,1.10
2019-02-15T01:09:19.652Z,1.10
2019-02-15T01:10:19.632Z,1.10
2019-02-15T01:11:19.605Z,1.30
2019-02-15T01:12:19.597Z,1.10
2019-02-15T01:13:19.586Z,0.90
2019-02-15T01:14:19.598Z,1.00
2019-02-15T01:15:19.563Z,0.90
2019-02-15T01:16:19.567Z,0.80
2019-02-15T01:17:19.544Z,1.00
2019-02-15T01:18:19.531Z,0.90
2019-02-15T01:19:19.541Z,0.80
2019-02-15T01:20:19.508Z,0.80
2019-02-15T01:21:19.501Z,1.00
2019-02-15T01:22:19.500Z,0.90
2019-02-15T01:23:19.476Z,0.90
2019-02-15T01:24:19.487Z,1.00
2019-02-15T01:25:19.457Z,1.20
2019-02-15T01:26:19.446Z,1.00
2019-02-15T01:27:19.434Z,0.90
2019-02-15T01:28:19.426Z,0.90
2019-02-15T01:29:19.444Z,1.00
2019-02-15T01:30:19.399Z,1.00
2019-02-15T01:31:19.387Z,1.00
2019-02-15T01:32:19.376Z,0.90
2019-02-15T01:33:19.366Z,1.00
2019-02-15T01:34:19.379Z,1.20
2019-02-15T01:35:19.355Z,0.90
2019-02-15T01:36:19.333Z,1.20
2019-02-15T01:37:19.322Z,1.00
2019-02-15T01:38:19.313Z,1.10
2019-02-15T01:39:19.327Z,0.90
2019-02-15T01:40:19.292Z,0.80
2019-02-15T01:41:19.287Z,0.90
2019-02-15T01:42:19.275Z,0.70
2019-02-15T01:43:19.265Z,0.80
2019-02-15T01:44:19.269Z,1.00
2019-02-15T01:45:19.242Z,0.90
2019-02-15T01:46:19.224Z,0.80
2019-02-15T01:47:19.216Z,0.70
2019-02-15T01:48:19.203Z,0.80
2019-02-15T01:49:19.222Z,1.00
2019-02-15T01:50:19.181Z,0.80
2019-02-15T01:51:19.168Z,0.90
2019-02-15T01:52:19.157Z,0.70
2019-02-15T01:53:19.147Z,0.80
2019-02-15T01:54:19.158Z,0.90
2019-02-15T01:55:19.133Z,0.80
2019-02-15T01:56:19.113Z,1.00
2019-02-15T01:57:19.102Z,0.90
2019-02-15T01:58:19.094Z,0.80
2019-02-15T01:59:19.106Z,0.80
2019-02-15T02:00:19.080Z,1.00
2019-02-15T02:01:19.067Z,0.90
2019-02-15T02:02:19.048Z,0.70
2019-02-15T02:03:19.039Z,0.70
2019-02-15T02:04:19.048Z,0.90
2019-02-15T02:05:19.025Z,0.70
2019-02-15T02:06:19.007Z,0.90
2019-02-15T02:07:19.013Z,0.80
2019-02-15T02:08:18.982Z,0.60
2019-02-15T02:09:18.993Z,0.70
2019-02-15T02:10:18.964Z,0.70
2019-02-15T02:11:18.958Z,0.50
2019-02-15T02:12:18.939Z,0.60
2019-02-15T02:13:18.939Z,0.60
2019-02-15T02:14:18.940Z,0.60
2019-02-15T02:15:18.906Z,0.60
2019-02-15T02:16:18.902Z,0.60
2019-02-15T02:17:18.891Z,0.60
2019-02-15T02:18:18.875Z,0.60
2019-02-15T02:19:18.898Z,0.70
2019-02-15T02:20:18.852Z,0.60
2019-02-15T02:21:18.853Z,0.70
2019-02-15T02:22:18.829Z,0.80
2019-02-15T02:23:18.818Z,0.60
2019-02-15T02:24:18.833Z,0.80
2019-02-15T02:25:18.813Z,0.50
2019-02-15T02:26:18.789Z,0.70
2019-02-15T02:27:18.777Z,0.60
2019-02-15T02:28:18.765Z,0.50
2019-02-15T02:29:18.775Z,0.50
2019-02-15T02:30:18.744Z,0.70
2019-02-15T02:31:18.740Z,0.70
2019-02-15T02:32:18.737Z,0.70
2019-02-15T02:33:18.711Z,0.60
2019-02-15T02:34:18.701Z,0.40
2019-02-15T02:35:18.715Z,0.50
2019-02-15T02:36:18.678Z,0.50
2019-02-15T02:37:18.668Z,0.60
2019-02-15T02:38:18.682Z,0.50
2019-02-15T02:39:18.660Z,0.50
2019-02-15T02:40:18.673Z,0.40
2019-02-15T02:41:18.627Z,0.40
2019-02-15T02:42:18.622Z,0.40
2019-02-15T02:43:18.602Z,0.50
2019-02-15T02:44:18.604Z,0.30
2019-02-15T02:45:18.623Z,0.50
2019-02-15T02:46:18.571Z,0.50
2019-02-15T02:47:18.556Z,0.50
2019-02-15T02:48:18.549Z,0.60
2019-02-15T02:49:18.537Z,0.50
2019-02-15T02:50:18.568Z,0.40
2019-02-15T02:51:18.514Z,0.50
2019-02-15T02:52:18.503Z,0.50
2019-02-15T02:53:18.496Z,0.50
2019-02-15T02:54:18.480Z,0.60
2019-02-15T02:55:18.495Z,0.40
2019-02-15T02:56:18.470Z,0.50
2019-02-15T02:57:18.459Z,0.50
2019-02-15T02:58:18.438Z,0.30
2019-02-15T02:59:18.427Z,0.40
2019-02-15T03:00:18.435Z,0.50
2019-02-15T03:01:18.405Z,0.40
2019-02-15T03:02:18.395Z,0.50
2019-02-15T03:03:18.392Z,0.60
2019-02-15T03:04:18.371Z,0.50
2019-02-15T03:05:18.383Z,0.40
2019-02-15T03:06:18.352Z,0.70
2019-02-15T03:07:18.343Z,0.50
2019-02-15T03:08:18.327Z,0.50
2019-02-15T03:09:18.335Z,0.50
2019-02-15T03:10:18.330Z,0.50
2019-02-15T03:11:18.295Z,0.60
2019-02-15T03:12:18.285Z,0.80
2019-02-15T03:13:18.273Z,0.80
2019-02-15T03:14:18.270Z,0.50
2019-02-15T03:15:18.285Z,0.50
2019-02-15T03:16:18.240Z,0.40
2019-02-15T03:17:18.231Z,0.60
2019-02-15T03:18:18.220Z,0.50
2019-02-15T03:19:18.206Z,0.60
2019-02-15T03:20:18.229Z,0.40
2019-02-15T03:21:19.393Z,0.80
2019-02-15T03:22:18.175Z,0.60
2019-02-15T03:23:18.163Z,0.60
2019-02-15T03:24:18.154Z,0.90
2019-02-15T03:25:18.163Z,0.70
2019-02-15T03:26:18.133Z,0.60
2019-02-15T03:27:18.133Z,0.60
2019-02-15T03:28:18.111Z,0.80
2019-02-15T03:29:18.097Z,0.60
2019-02-15T03:30:18.132Z,0.70
2019-02-15T03:31:18.083Z,0.70
2019-02-15T03:32:18.067Z,0.80
2019-02-15T03:33:18.091Z,0.50
2019-02-15T03:34:18.051Z,0.50
2019-02-15T03:35:18.055Z,0.60
2019-02-15T03:36:18.019Z,0.50
2019-02-15T03:37:18.018Z,0.50
2019-02-15T03:38:17.996Z,0.60
2019-02-15T03:39:17.998Z,0.60
2019-02-15T03:40:17.997Z,0.50
2019-02-15T03:41:17.964Z,0.50
2019-02-15T03:42:17.953Z,0.40
2019-02-15T03:43:17.941Z,0.30
2019-02-15T03:44:22.366Z,0.40
2019-02-15T03:45:17.954Z,0.50
2019-02-15T03:46:17.911Z,0.50
2019-02-15T03:47:17.903Z,0.50
2019-02-15T03:48:17.887Z,0.40
2019-02-15T03:49:17.879Z,0.40
2019-02-15T03:50:17.892Z,0.50
2019-02-15T03:51:17.870Z,0.40
2019-02-15T03:52:17.844Z,0.30
2019-02-15T03:53:17.834Z,0.40
2019-02-15T03:54:17.824Z,0.50
2019-02-15T03:55:17.834Z,0.50
2019-02-15T03:56:17.800Z,0.40
2019-02-15T03:57:17.797Z,0.50
2019-02-15T03:58:17.780Z,0.40
2019-02-15T03:59:17.775Z,0.50
2019-02-15T04:00:17.779Z,0.50
2019-02-15T04:01:17.753Z,0.50
2019-02-15T04:02:17.736Z,0.50
2019-02-15T04:03:17.733Z,0.50
2019-02-15T04:04:17.722Z,0.40
2019-02-15T04:05:17.723Z,0.50
2019-02-15T04:06:17.690Z,0.40
2019-02-15T04:07:17.685Z,0.50
2019-02-15T04:08:17.670Z,0.50
2019-02-15T04:09:17.682Z,0.50
2019-02-15T04:10:17.708Z,0.50
2019-02-15T04:11:17.651Z,0.30
2019-02-15T04:12:17.627Z,0.50
2019-02-15T04:13:17.615Z,0.40
2019-02-15T04:14:17.612Z,0.50
2019-02-15T04:15:17.594Z,0.50
2019-02-15T04:16:17.605Z,0.50
2019-02-15T04:17:17.578Z,0.40
2019-02-15T04:18:17.558Z,0.50
2019-02-15T04:19:17.557Z,0.40
2019-02-15T04:20:17.544Z,0.30
2019-02-15T04:21:17.552Z,0.50
2019-02-15T04:22:17.520Z,0.50
2019-02-15T04:23:17.509Z,0.40
2019-02-15T04:24:17.492Z,0.40
2019-02-15T04:25:17.482Z,0.50
2019-02-15T04:26:17.503Z,0.40
2019-02-15T04:27:17.459Z,0.40
2019-02-15T04:28:17.448Z,0.50
2019-02-15T04:29:17.449Z,0.50
2019-02-15T04:30:17.428Z,0.40
2019-02-15T04:31:17.435Z,0.40
2019-02-15T04:32:17.419Z,0.50
2019-02-15T04:33:17.394Z,0.50
2019-02-15T04:34:17.380Z,0.40
2019-02-15T04:35:17.374Z,0.40
2019-02-15T04:36:17.378Z,0.50
2019-02-15T04:37:17.348Z,0.30
2019-02-15T04:38:17.353Z,0.50
2019-02-15T04:39:17.327Z,0.30
2019-02-15T04:40:17.375Z,0.80
2019-02-15T04:41:17.327Z,0.40
2019-02-15T04:42:17.301Z,0.40
2019-02-15T04:43:17.281Z,0.50
2019-02-15T04:44:17.285Z,0.50
2019-02-15T04:45:17.261Z,0.40
2019-02-15T04:46:17.271Z,0.30
2019-02-15T04:47:17.236Z,0.40
2019-02-15T04:48:17.224Z,0.50
2019-02-15T04:49:17.212Z,0.60
2019-02-15T04:50:17.218Z,0.60
2019-02-15T04:51:17.213Z,0.50
2019-02-15T04:52:17.199Z,0.50
2019-02-15T04:53:17.172Z,0.40
2019-02-15T04:54:17.156Z,0.50
2019-02-15T04:55:17.149Z,0.50
2019-02-15T04:56:17.174Z,0.60
2019-02-15T04:57:17.122Z,0.40
2019-02-15T04:58:17.111Z,0.40
2019-02-15T04:59:17.102Z,0.40
2019-02-15T05:00:17.091Z,0.50
2019-02-15T05:01:17.105Z,0.60
2019-02-15T05:02:17.074Z,0.60
2019-02-15T05:03:19.461Z,0.40
2019-02-15T05:04:17.046Z,0.50
2019-02-15T05:05:17.040Z,0.50
2019-02-15T05:06:17.046Z,0.50
2019-02-15T05:07:17.013Z,0.40
2019-02-15T05:08:17.024Z,0.40
2019-02-15T05:09:16.992Z,0.50
2019-02-15T05:10:16.978Z,0.40
2019-02-15T05:11:16.993Z,0.40
2019-02-15T05:12:16.956Z,0.40
2019-02-15T05:13:16.944Z,0.60
2019-02-15T05:14:16.943Z,0.40
2019-02-15T05:15:16.922Z,0.50
2019-02-15T05:16:16.933Z,0.40
2019-02-15T05:17:16.901Z,0.50
2019-02-15T05:18:16.888Z,0.50
2019-02-15T05:19:16.877Z,0.40
2019-02-15T05:20:16.877Z,0.50
2019-02-15T05:21:16.878Z,0.50
2019-02-15T05:22:16.847Z,0.40
2019-02-15T05:23:16.834Z,0.60
2019-02-15T05:24:16.825Z,0.50
2019-02-15T05:25:16.814Z,0.50
2019-02-15T05:26:16.841Z,0.50
2019-02-15T05:27:16.790Z,0.50
2019-02-15T05:28:16.777Z,0.70
2019-02-15T05:29:16.771Z,0.50
2019-02-15T05:30:16.756Z,0.60
2019-02-15T05:31:16.769Z,0.40
2019-02-15T05:32:16.741Z,0.60
2019-02-15T05:33:16.721Z,0.50
2019-02-15T05:34:16.730Z,0.50
2019-02-15T05:35:16.704Z,0.60
2019-02-15T05:36:16.710Z,0.50
2019-02-15T05:37:16.695Z,0.60
2019-02-15T05:38:16.679Z,0.60
2019-02-15T05:39:16.655Z,0.70
2019-02-15T05:40:16.646Z,0.70
2019-02-15T05:41:16.656Z,0.50
2019-02-15T05:42:16.623Z,0.50
2019-02-15T05:43:16.619Z,0.50
2019-02-15T05:44:16.602Z,0.70
2019-02-15T05:45:16.587Z,0.50
2019-02-15T05:46:16.599Z,0.60
2019-02-15T05:47:16.568Z,0.50
2019-02-15T05:48:16.554Z,0.50
2019-02-15T05:49:16.552Z,0.70
2019-02-15T05:50:16.533Z,0.50
2019-02-15T05:51:16.546Z,0.60
2019-02-15T05:52:16.512Z,0.50
2019-02-15T05:53:16.498Z,0.60
2019-02-15T05:54:16.487Z,0.50
2019-02-15T05:55:16.488Z,0.80
2019-02-15T05:56:16.500Z,0.80
2019-02-15T05:57:16.455Z,0.70
2019-02-15T05:58:16.443Z,0.70
2019-02-15T05:59:16.431Z,1.00
2019-02-15T06:00:16.421Z,1.00
2019-02-15T06:01:16.421Z,1.40
2019-02-15T06:02:16.425Z,1.10
2019-02-15T06:03:16.396Z,0.70
2019-02-15T06:04:16.377Z,0.70
2019-02-15T06:05:16.370Z,1.10
2019-02-15T06:06:16.354Z,0.70
2019-02-15T06:07:16.377Z,0.80
2019-02-15T06:08:16.338Z,1.00
2019-02-15T06:09:16.322Z,0.60
2019-02-15T06:10:16.311Z,0.80
2019-02-15T06:11:16.302Z,0.50
2019-02-15T06:12:16.312Z,0.60
2019-02-15T06:13:16.353Z,0.70
2019-02-15T06:14:16.266Z,0.80
2019-02-15T06:15:16.259Z,0.60
2019-02-15T06:16:16.245Z,0.80
2019-02-15T06:17:16.257Z,0.70
2019-02-15T06:18:16.228Z,0.60
2019-02-15T06:19:16.210Z,0.70
2019-02-15T06:20:16.211Z,0.60
2019-02-15T06:21:16.231Z,0.80
2019-02-15T06:22:16.203Z,0.70
2019-02-15T06:23:16.165Z,0.70
2019-02-15T06:24:16.164Z,0.60
2019-02-15T06:25:16.164Z,0.60
2019-02-15T06:26:16.133Z,0.50
2019-02-15T06:27:16.147Z,0.70
2019-02-15T06:28:16.111Z,0.50
2019-02-15T06:29:16.102Z,0.60
2019-02-15T06:30:16.100Z,0.50
2019-02-15T06:31:16.089Z,0.60
2019-02-15T06:32:16.113Z,0.50
2019-02-15T06:33:16.076Z,0.50
2019-02-15T06:34:16.045Z,0.40
2019-02-15T06:35:16.034Z,0.60
2019-02-15T06:36:16.057Z,0.60
2019-02-15T06:37:16.039Z,0.60
2019-02-15T06:38:16.002Z,0.40
2019-02-15T06:39:16.012Z,0.40
2019-02-15T06:40:15.981Z,0.60
2019-02-15T06:41:15.970Z,0.90
2019-02-15T06:42:15.981Z,0.70
2019-02-15T06:43:15.946Z,1.00
2019-02-15T06:44:15.945Z,1.10
2019-02-15T06:45:24.414Z,0.90
2019-02-15T06:46:16.913Z,0.80
2019-02-15T06:47:15.930Z,0.70
2019-02-15T06:48:15.892Z,0.80
2019-02-15T06:49:15.888Z,0.90
2019-02-15T06:50:15.889Z,0.90
2019-02-15T06:51:15.871Z,0.60
2019-02-15T06:52:15.879Z,0.70
2019-02-15T06:53:15.848Z,0.70
2019-02-15T06:54:15.826Z,0.80
2019-02-15T06:55:15.815Z,0.90
2019-02-15T06:56:15.805Z,0.60
2019-02-15T06:57:15.828Z,0.90
2019-02-15T06:58:15.785Z,1.00
2019-02-15T06:59:15.773Z,1.00
2019-02-15T07:00:15.772Z,1.00
2019-02-15T07:01:15.751Z,1.30
2019-02-15T07:02:15.776Z,1.10
2019-02-15T07:03:15.737Z,1.10
2019-02-15T07:04:15.722Z,1.00
2019-02-15T07:05:15.709Z,1.00
2019-02-15T07:06:15.695Z,0.80
2019-02-15T07:07:15.708Z,1.00
2019-02-15T07:08:15.677Z,1.10
2019-02-15T07:09:15.685Z,0.70
2019-02-15T07:10:15.661Z,0.70
2019-02-15T07:11:15.643Z,0.70
2019-02-15T07:12:15.652Z,0.70
2019-02-15T07:13:15.618Z,0.70
2019-02-15T07:14:15.608Z,0.60
2019-02-15T07:15:15.625Z,0.80
2019-02-15T07:16:15.588Z,0.60
2019-02-15T07:17:15.599Z,0.60
2019-02-15T07:18:15.564Z,0.70
2019-02-15T07:19:15.559Z,0.60
2019-02-15T07:20:15.542Z,0.60
2019-02-15T07:21:15.539Z,0.70
2019-02-15T07:22:15.548Z,0.60
2019-02-15T07:23:15.532Z,0.70
2019-02-15T07:24:15.497Z,0.90
2019-02-15T07:25:15.489Z,0.50
2019-02-15T07:26:15.475Z,0.80
2019-02-15T07:27:15.492Z,0.50
2019-02-15T07:28:15.466Z,0.60
2019-02-15T07:29:15.454Z,0.50
2019-02-15T07:30:15.781Z,0.70
2019-02-15T07:31:15.419Z,0.70
2019-02-15T07:32:15.431Z,0.50
2019-02-15T07:33:15.741Z,0.60
2019-02-15T07:34:15.386Z,0.60
2019-02-15T07:35:15.453Z,0.70
2019-02-15T07:36:15.363Z,0.70
2019-02-15T07:37:15.379Z,0.50
2019-02-15T07:38:15.348Z,0.50
2019-02-15T07:39:15.333Z,0.50
2019-02-15T07:40:15.342Z,0.60
2019-02-15T07:41:15.326Z,0.70
2019-02-15T07:42:15.331Z,0.60
2019-02-15T07:43:15.287Z,0.60
2019-02-15T07:44:15.317Z,0.60
2019-02-15T07:45:15.272Z,0.50
2019-02-15T07:46:15.270Z,0.50
2019-02-15T07:47:15.295Z,0.70
2019-02-15T07:48:15.408Z,0.90
2019-02-15T07:49:15.283Z,0.70
2019-02-15T07:50:15.252Z,0.80
2019-02-15T07:51:15.214Z,0.70
2019-02-15T07:52:15.208Z,0.70
2019-02-15T07:53:15.334Z,0.90
2019-02-15T07:54:15.170Z,0.70
2019-02-15T07:55:15.155Z,0.90
2019-02-15T07:56:15.176Z,0.60
2019-02-15T07:57:15.308Z,0.90
2019-02-15T07:58:15.141Z,0.90
2019-02-15T07:59:15.733Z,0.80
2019-02-15T08:00:15.702Z,1.00
2019-02-15T08:01:15.477Z,0.70
2019-02-15T08:02:15.229Z,1.00
2019-02-15T08:03:15.087Z,1.00
2019-02-15T08:04:15.071Z,0.80
2019-02-15T08:05:15.046Z,1.10
2019-02-15T08:06:15.053Z,0.90
2019-02-15T08:07:15.022Z,1.20
2019-02-15T08:08:15.038Z,1.10
2019-02-15T08:09:15.007Z,1.20
2019-02-15T08:10:14.986Z,1.10
2019-02-15T08:11:14.974Z,1.30
2019-02-15T08:12:14.971Z,1.20
2019-02-15T08:13:14.998Z,1.10
2019-02-15T08:14:17.062Z,1.10
2019-02-15T08:15:14.935Z,1.00
2019-02-15T08:16:14.919Z,1.00
2019-02-15T08:17:14.911Z,1.30
2019-02-15T08:18:14.943Z,1.20
2019-02-15T08:19:14.884Z,1.40
2019-02-15T08:20:14.884Z,1.30
2019-02-15T08:21:14.866Z,1.20
2019-02-15T08:22:14.851Z,1.00
2019-02-15T08:23:14.865Z,1.10
2019-02-15T08:24:14.834Z,1.20
2019-02-15T08:25:14.820Z,1.20
2019-02-15T08:26:14.809Z,1.10
2019-02-15T08:27:14.797Z,1.20
2019-02-15T08:28:14.813Z,1.20
2019-02-15T08:29:14.776Z,1.10
2019-02-15T08:30:14.764Z,1.00
2019-02-15T08:31:14.753Z,1.10
2019-02-15T08:32:14.740Z,1.30
2019-02-15T08:33:14.753Z,1.20
2019-02-15T08:34:14.723Z,1.40
2019-02-15T08:35:14.706Z,1.20
2019-02-15T08:36:14.696Z,1.20
2019-02-15T08:37:14.685Z,1.10
2019-02-15T08:38:14.698Z,1.50
2019-02-15T08:39:14.671Z,1.00
2019-02-15T08:40:14.674Z,0.90
2019-02-15T08:41:14.644Z,1.40
2019-02-15T08:42:14.629Z,1.30
2019-02-15T08:43:14.656Z,1.10
2019-02-15T08:44:14.610Z,1.00
2019-02-15T08:45:14.605Z,1.30
2019-02-15T08:46:14.588Z,1.00
2019-02-15T08:47:14.576Z,1.50
2019-02-15T08:48:14.625Z,1.30
2019-02-15T08:49:14.558Z,1.10
2019-02-15T08:50:14.546Z,1.30
2019-02-15T08:51:14.537Z,1.10
2019-02-15T08:52:14.531Z,1.50
2019-02-15T08:53:14.537Z,1.40
2019-02-15T08:54:14.617Z,1.80
2019-02-15T08:55:14.544Z,1.40
2019-02-15T08:56:14.509Z,1.00
2019-02-15T08:57:14.505Z,1.30
2019-02-15T08:58:14.488Z,1.20
2019-02-15T08:59:14.461Z,1.70
2019-02-15T09:00:14.444Z,1.30
2019-02-15T09:01:14.427Z,1.30
2019-02-15T09:02:14.418Z,1.60
2019-02-15T09:03:14.430Z,1.50
2019-02-15T09:04:14.588Z,1.40
2019-02-15T09:05:14.512Z,1.10
2019-02-15T09:06:14.373Z,1.40
2019-02-15T09:07:14.361Z,1.10
2019-02-15T09:08:14.392Z,1.10
2019-02-15T09:09:14.365Z,1.20
2019-02-15T09:10:14.331Z,1.30
2019-02-15T09:11:14.348Z,1.60
2019-02-15T09:12:14.369Z,1.40
2019-02-15T09:13:14.318Z,1.40
2019-02-15T09:14:14.285Z,1.70
2019-02-15T09:15:14.302Z,1.60
2019-02-15T09:16:14.262Z,1.40
2019-02-15T09:17:14.258Z,1.30
2019-02-15T09:18:14.333Z,1.30
2019-02-15T09:19:14.245Z,1.50
2019-02-15T09:20:14.215Z,1.50
2019-02-15T09:21:14.207Z,1.40
2019-02-15T09:22:14.218Z,1.60
2019-02-15T09:23:14.191Z,1.90
2019-02-15T09:24:14.230Z,2.10
2019-02-15T09:25:14.204Z,2.00
2019-02-15T09:26:18.264Z,2.20
2019-02-15T09:27:14.149Z,1.50
2019-02-15T09:28:14.145Z,2.00
2019-02-15T09:29:14.187Z,1.40
2019-02-15T09:30:14.131Z,1.70
2019-02-15T09:31:14.118Z,1.70
2019-02-15T09:32:14.078Z,1.50
2019-02-15T09:33:14.071Z,1.80
2019-02-15T09:34:14.077Z,1.80
2019-02-15T09:35:14.048Z,1.90
2019-02-15T09:36:14.041Z,1.90
2019-02-15T09:37:14.026Z,1.80
2019-02-15T09:38:14.021Z,2.00
2019-02-15T09:39:14.021Z,2.10
2019-02-15T09:40:14.007Z,2.00
2019-02-15T09:41:13.977Z,1.90
2019-02-15T09:42:13.968Z,2.10
2019-02-15T09:43:13.958Z,2.00
2019-02-15T09:44:13.967Z,1.80
2019-02-15T09:45:13.935Z,2.00
2019-02-15T09:46:19.995Z,2.00
2019-02-15T09:47:14.906Z,1.80
2019-02-15T09:48:13.897Z,1.90
2019-02-15T09:49:13.945Z,2.10
2019-02-15T09:50:13.873Z,2.10
2019-02-15T09:51:13.861Z,2.10
2019-02-15T09:52:13.853Z,2.20
2019-02-15T09:53:13.858Z,1.80
2019-02-15T09:54:13.855Z,2.00
2019-02-15T09:55:13.816Z,2.00
2019-02-15T09:56:13.808Z,2.10
2019-02-15T09:57:13.795Z,2.30
2019-02-15T09:58:13.781Z,1.90
2019-02-15T09:59:13.798Z,2.10
2019-02-15T10:00:13.765Z,2.00
2019-02-15T10:01:13.756Z,2.20
2019-02-15T10:02:13.742Z,2.00
2019-02-15T10:03:13.742Z,2.10
2019-02-15T10:04:13.760Z,1.90
2019-02-15T10:05:13.703Z,1.90
2019-02-15T10:06:13.746Z,1.70
2019-02-15T10:07:13.688Z,1.90
2019-02-15T10:08:13.670Z,2.00
2019-02-15T10:09:13.679Z,1.60
2019-02-15T10:10:13.648Z,1.50
2019-02-15T10:11:13.660Z,1.60
2019-02-15T10:12:13.629Z,1.70
2019-02-15T10:13:13.614Z,1.80
2019-02-15T10:14:13.633Z,1.60
2019-02-15T10:15:13.604Z,1.70
2019-02-15T10:16:13.582Z,1.70
2019-02-15T10:17:13.576Z,1.90
2019-02-15T10:18:13.558Z,2.30
2019-02-15T10:19:22.002Z,1.90
2019-02-15T10:20:14.534Z,2.50
2019-02-15T10:21:13.531Z,1.70
2019-02-15T10:22:13.522Z,1.40
2019-02-15T10:23:13.517Z,1.50
2019-02-15T10:24:13.545Z,1.90
2019-02-15T10:25:13.478Z,1.80
2019-02-15T10:26:13.467Z,2.50
2019-02-15T10:27:13.457Z,2.10
2019-02-15T10:28:13.449Z,2.20
2019-02-15T10:29:13.469Z,2.40
2019-02-15T10:30:13.424Z,1.80
2019-02-15T10:31:13.412Z,1.60
2019-02-15T10:32:13.403Z,1.80
2019-02-15T10:33:13.391Z,1.70
2019-02-15T10:34:13.404Z,1.20
2019-02-15T10:35:13.369Z,1.60
2019-02-15T10:36:13.357Z,1.50
2019-02-15T10:37:13.349Z,1.50
2019-02-15T10:38:13.351Z,1.30
2019-02-15T10:39:13.350Z,1.60
2019-02-15T10:40:13.316Z,1.90
2019-02-15T10:41:13.353Z,1.60
2019-02-15T10:42:13.294Z,1.40
2019-02-15T10:43:13.287Z,1.60
2019-02-15T10:44:13.313Z,1.20
2019-02-15T10:45:13.261Z,1.10
2019-02-15T10:46:13.249Z,1.10
2019-02-15T10:47:14.464Z,1.40
2019-02-15T10:48:14.230Z,1.30
2019-02-15T10:49:13.249Z,1.30
2019-02-15T10:50:13.211Z,1.20
2019-02-15T10:51:13.210Z,1.10
2019-02-15T10:52:13.199Z,0.90
2019-02-15T10:53:13.176Z,1.20
2019-02-15T10:54:13.191Z,1.00
2019-02-15T10:55:13.158Z,0.70
2019-02-15T10:56:13.147Z,0.90
2019-02-15T10:57:13.682Z,0.90
2019-02-15T10:58:13.146Z,0.60
2019-02-15T10:59:13.137Z,0.90
2019-02-15T11:00:13.113Z,0.70
2019-02-15T11:01:13.096Z,0.80
2019-02-15T11:02:13.081Z,0.90
2019-02-15T11:03:13.067Z,0.80
2019-02-15T11:04:13.090Z,0.80
2019-02-15T11:05:13.047Z,1.00
2019-02-15T11:06:13.035Z,1.00
2019-02-15T11:07:13.027Z,1.00
2019-02-15T11:08:13.027Z,1.40
2019-02-15T11:09:13.005Z,1.10
2019-02-15T11:10:13.016Z,0.90
2019-02-15T11:11:12.986Z,0.90
2019-02-15T11:12:12.973Z,0.70
2019-02-15T11:13:12.959Z,0.80
2019-02-15T11:14:12.948Z,0.70
2019-02-15T11:15:12.963Z,0.70
2019-02-15T11:16:12.958Z,0.80
2019-02-15T11:17:12.915Z,0.70
2019-02-15T11:18:12.904Z,1.00
2019-02-15T11:19:12.894Z,1.20
2019-02-15T11:20:12.921Z,0.90
2019-02-15T11:21:12.958Z,0.80
2019-02-15T11:22:12.858Z,1.00
2019-02-15T11:23:12.853Z,1.10
2019-02-15T11:24:12.838Z,0.90
2019-02-15T11:25:12.858Z,0.70
2019-02-15T11:26:12.821Z,0.90
2019-02-15T11:27:12.815Z,1.10
2019-02-15T11:28:12.795Z,0.80
2019-02-15T11:29:12.783Z,0.80
2019-02-15T11:30:12.797Z,0.90
2019-02-15T11:31:12.763Z,0.80
2019-02-15T11:32:12.752Z,1.00
2019-02-15T11:33:12.747Z,0.90
2019-02-15T11:34:12.726Z,0.80
2019-02-15T11:35:12.750Z,0.80
2019-02-15T11:36:12.712Z,1.00
2019-02-15T11:37:12.706Z,0.80
2019-02-15T11:38:12.737Z,0.80
2019-02-15T11:39:12.684Z,1.00
2019-02-15T11:40:12.702Z,0.80
2019-02-15T11:41:12.648Z,1.00
2019-02-15T11:42:12.713Z,1.10
2019-02-15T11:43:12.632Z,0.60
2019-02-15T11:44:12.622Z,0.70
2019-02-15T11:45:12.633Z,0.90
2019-02-15T11:46:12.602Z,1.00
2019-02-15T11:47:12.586Z,0.70
2019-02-15T11:48:12.573Z,0.90
2019-02-15T11:49:12.588Z,0.80
2019-02-15T11:50:12.600Z,1.00
2019-02-15T11:51:12.551Z,0.80
2019-02-15T11:52:12.529Z,0.80
2019-02-15T11:53:12.524Z,0.90
2019-02-15T11:54:12.507Z,0.90
2019-02-15T11:55:12.530Z,0.80
2019-02-15T11:56:12.487Z,0.80
2019-02-15T11:57:12.490Z,0.90
2019-02-15T11:58:12.459Z,0.90
2019-02-15T11:59:12.484Z,0.90
2019-02-15T12:00:14.421Z,0.70
2019-02-15T12:01:12.427Z,0.90
2019-02-15T12:02:12.420Z,0.80
2019-02-15T12:03:12.448Z,0.90
2019-02-15T12:04:12.455Z,1.00
2019-02-15T12:05:12.479Z,0.80
2019-02-15T12:06:12.385Z,0.90
2019-02-15T12:07:12.395Z,0.80
2019-02-15T12:08:12.363Z,0.90
2019-02-15T12:09:12.336Z,0.70
2019-02-15T12:10:12.412Z,0.60
2019-02-15T12:11:12.315Z,0.90
2019-02-15T12:12:12.313Z,0.70
2019-02-15T12:13:12.291Z,0.60
2019-02-15T12:14:12.278Z,0.70
2019-02-15T12:15:12.306Z,0.80
2019-02-15T12:16:12.269Z,0.60
2019-02-15T12:17:12.248Z,0.80
2019-02-15T12:18:12.242Z,0.60
2019-02-15T12:19:12.226Z,0.90
2019-02-15T12:20:12.238Z,0.80
2019-02-15T12:21:12.201Z,0.70
2019-02-15T12:22:12.190Z,0.50
2019-02-15T12:23:12.185Z,0.70
2019-02-15T12:24:12.167Z,0.90
2019-02-15T12:25:12.194Z,0.60
2019-02-15T12:26:12.147Z,0.80
2019-02-15T12:27:12.135Z,0.80
2019-02-15T12:28:12.122Z,0.80
2019-02-15T12:29:12.112Z,1.00
2019-02-15T12:30:12.128Z,0.60
2019-02-15T12:31:12.094Z,0.70
2019-02-15T12:32:12.079Z,0.80
2019-02-15T12:33:12.072Z,0.80
2019-02-15T12:34:12.056Z,0.90
2019-02-15T12:35:12.069Z,0.80
2019-02-15T12:36:12.034Z,0.70
2019-02-15T12:37:12.021Z,0.70
2019-02-15T12:38:12.010Z,0.80
2019-02-15T12:39:14.254Z,0.80
2019-02-15T12:40:12.012Z,1.00
2019-02-15T12:41:11.977Z,1.10
2019-02-15T12:42:11.965Z,1.10
2019-02-15T12:43:11.955Z,1.10
2019-02-15T12:44:11.946Z,0.90
2019-02-15T12:45:11.981Z,1.80
2019-02-15T12:46:11.963Z,1.30
2019-02-15T12:47:15.115Z,0.70
2019-02-15T12:48:11.898Z,0.70
2019-02-15T12:49:11.890Z,0.70
2019-02-15T12:50:11.878Z,0.80
2019-02-15T12:51:11.906Z,0.80
2019-02-15T12:52:11.857Z,0.80
2019-02-15T12:53:11.850Z,0.70
2019-02-15T12:54:11.854Z,0.90
2019-02-15T12:55:11.825Z,0.50
2019-02-15T12:56:11.918Z,0.80
2019-02-15T12:57:11.800Z,0.60
2019-02-15T12:58:11.787Z,0.60
2019-02-15T12:59:11.775Z,0.50
2019-02-15T13:00:11.765Z,0.60
2019-02-15T13:01:11.779Z,0.70
2019-02-15T13:02:11.748Z,0.70
2019-02-15T13:03:11.731Z,0.60
2019-02-15T13:04:11.721Z,0.80
2019-02-15T13:05:11.709Z,0.80
2019-02-15T13:06:11.722Z,0.70
2019-02-15T13:07:11.694Z,0.60
2019-02-15T13:08:11.676Z,0.70
2019-02-15T13:09:11.670Z,0.50
2019-02-15T13:10:11.653Z,0.60
2019-02-15T13:11:11.676Z,0.60
2019-02-15T13:12:11.631Z,0.50
2019-02-15T13:13:11.621Z,0.70
2019-02-15T13:14:11.611Z,0.60
2019-02-15T13:15:11.605Z,0.60
2019-02-15T13:16:11.609Z,0.50
2019-02-15T13:17:11.579Z,0.50
2019-02-15T13:18:11.565Z,0.60